Time;durP1;ratioP1;P1;durP2;ratioP2;P2;SDS_P1;SDS_P2;PMS_P1;PMS_P2;Temp;Humidity;BMP_temperature;BMP_pressure;BME280_temperature;BME280_humidity;BME280_pressure;Samples;Min_cycle;Max_cycle;Signal;HPM_P1;HPM_P2
2022/01/25 00:28:25;;;;;;;73.88;39.38;;;;;;;;;;4981547;28;20188;-70
2022/01/25 00:31:05;;;;;;;73.00;38.45;;;;;;;;;;4982105;28;20371;-69
2022/01/25 00:33:32;;;;;;;74.45;39.10;;;;;;;;;;4976660;28;20648;-69
2022/01/25 00:35:58;;;;;;;72.35;37.75;;;;;;;;;;4977273;28;21898;-70
2022/01/25 00:38:24;;;;;;;70.97;38.13;;;;;;;;;;4981085;28;20113;-69
2022/01/25 00:40:51;;;;;;;67.30;37.88;;;;;;;;;;4981506;28;20037;-69
2022/01/25 00:43:24;;;;;;;69.05;37.33;;;;;;;;;;4996090;28;20029;-69
2022/01/25 00:45:54;;;;;;;70.75;37.67;;;;;;;;;;4980853;28;20037;-69
2022/01/25 00:48:30;;;;;;;69.95;36.58;;;;;;;;;;4979747;28;20045;-69
2022/01/25 00:51:14;;;;;;;65.70;35.97;;;;;;;;;;4982798;28;20044;-70
2022/01/25 00:54:00;;;;;;;67.53;36.70;;;;;;;;;;4981498;28;20151;-71
2022/01/25 00:56:33;;;;;;;68.10;37.72;;;;;;;;;;4976838;28;20398;-71
2022/01/25 00:59:03;;;;;;;70.32;37.08;;;;;;;;;;4981139;28;20390;-69
2022/01/25 01:01:29;;;;;;;67.88;37.15;;;;;;;;;;4980775;28;20054;-72
2022/01/25 01:03:54;;;;;;;68.47;36.75;;;;;;;;;;4975791;28;20077;-70
2022/01/25 01:06:20;;;;;;;71.38;38.63;;;;;;;;;;4992535;28;20038;-69
2022/01/25 01:08:47;;;;;;;77.93;39.38;;;;;;;;;;4980467;28;20041;-69
2022/01/25 01:11:18;;;;;;;73.57;39.08;;;;;;;;;;4980657;28;20422;-70
2022/01/25 01:14:02;;;;;;;75.45;40.85;;;;;;;;;;4980519;28;20038;-70
2022/01/25 01:36:03;;;;;;;78.00;40.92;;;;;;;;;;4979842;28;20057;-71
2022/01/25 01:41:25;;;;;;;72.38;39.03;;;;;;;;;;4983487;28;20096;-69
2022/01/25 01:43:58;;;;;;;;;;;;;;;;;;4975148;28;20034;-70
2022/01/25 01:49:00;;;;;;;77.95;39.33;;;;;;;;;;4979679;28;20409;-69
2022/01/25 01:51:32;;;;;;;80.22;41.33;;;;;;;;;;4993082;28;20168;-69
2022/01/25 01:54:08;;;;;;;72.88;38.95;;;;;;;;;;4988234;28;21935;-69
2022/01/25 01:56:34;;;;;;;76.50;41.33;;;;;;;;;;4988535;28;20092;-70
2022/01/25 01:59:03;;;;;;;79.72;40.30;;;;;;;;;;4967030;28;20060;-71
2022/01/25 02:01:33;;;;;;;77.43;41.05;;;;;;;;;;4988519;28;20033;-70
2022/01/25 02:04:02;;;;;;;77.78;40.72;;;;;;;;;;4987562;28;20242;-71
2022/01/25 02:06:28;;;;;;;77.78;39.88;;;;;;;;;;4986995;28;20026;-71
2022/01/25 02:08:54;;;;;;;81.93;42.28;;;;;;;;;;4988227;28;20594;-70
2022/01/25 02:11:24;;;;;;;81.35;41.22;;;;;;;;;;4988259;28;20118;-70
2022/01/25 02:13:52;;;;;;;85.53;43.33;;;;;;;;;;4988340;28;20022;-70
2022/01/25 02:16:40;;;;;;;80.95;41.35;;;;;;;;;;4987643;28;20041;-69
2022/01/25 02:24:34;;;;;;;79.68;41.92;;;;;;;;;;4988941;28;20033;-69
2022/01/25 02:27:00;;;;;;;82.13;41.85;;;;;;;;;;4988270;28;20096;-69
2022/01/25 02:29:25;;;;;;;76.80;39.53;;;;;;;;;;4987928;28;20029;-70
2022/01/25 02:31:54;;;;;;;75.72;39.85;;;;;;;;;;4987985;28;20446;-70
2022/01/25 02:34:22;;;;;;;79.28;39.67;;;;;;;;;;4985970;28;20531;-69
2022/01/25 02:36:54;;;;;;;77.93;40.35;;;;;;;;;;4987227;28;20053;-70
2022/01/25 02:39:20;;;;;;;78.45;41.03;;;;;;;;;;4988079;28;20041;-70
2022/01/25 02:41:48;;;;;;;65.05;34.92;;;;;;;;;;4987394;28;20038;-69
2022/01/25 02:44:23;;;;;;;73.13;38.38;;;;;;;;;;4988073;28;20088;-70
2022/01/25 02:49:16;;;;;;;74.70;39.72;;;;;;;;;;4974711;28;20034;-69
2022/01/25 02:51:48;;;;;;;80.13;39.60;;;;;;;;;;4970982;28;20109;-70
2022/01/25 02:54:14;;;;;;;83.28;41.95;;;;;;;;;;4987255;28;20089;-70
2022/01/25 02:56:42;;;;;;;82.53;40.80;;;;;;;;;;4987310;28;20076;-70
2022/01/25 02:59:11;;;;;;;77.93;40.60;;;;;;;;;;4987388;28;20085;-70
2022/01/25 03:01:37;;;;;;;74.28;39.80;;;;;;;;;;4987925;28;20668;-69
2022/01/25 03:04:03;;;;;;;77.82;40.65;;;;;;;;;;4986075;28;20022;-70
2022/01/25 03:06:31;;;;;;;74.80;39.78;;;;;;;;;;4987469;28;20041;-70
2022/01/25 03:08:59;;;;;;;77.13;40.40;;;;;;;;;;4987517;28;20481;-70
2022/01/25 03:11:27;;;;;;;73.70;38.63;;;;;;;;;;4987389;28;20033;-70
2022/01/25 03:13:55;;;;;;;72.18;38.70;;;;;;;;;;5001604;28;20037;-70
2022/01/25 03:19:30;;;;;;;77.95;40.85;;;;;;;;;;4986694;28;20926;-69
2022/01/25 03:21:50;;;;;;;79.60;40.85;;;;;;;;;;4986639;28;20124;-69
2022/01/25 03:24:16;;;;;;;80.40;41.45;;;;;;;;;;4987324;28;20346;-69
2022/01/25 03:26:44;;;;;;;65.50;36.17;;;;;;;;;;4987394;28;20055;-69
2022/01/25 03:29:09;;;;;;;63.70;34.67;;;;;;;;;;4987005;28;20182;-69
2022/01/25 03:31:35;;;;;;;66.07;37.35;;;;;;;;;;4974383;28;20026;-69
2022/01/25 03:34:01;;;;;;;74.03;38.97;;;;;;;;;;4986043;28;20301;-69
2022/01/25 03:36:26;;;;;;;75.65;39.65;;;;;;;;;;4987040;28;20100;-69
2022/01/25 03:38:51;;;;;;;68.43;38.05;;;;;;;;;;4986220;28;20186;-70
2022/01/25 03:41:19;;;;;;;65.60;36.20;;;;;;;;;;4990763;28;20053;-71
2022/01/25 03:43:53;;;;;;;64.15;34.90;;;;;;;;;;4990483;28;20026;-70
2022/01/25 03:46:26;;;;;;;63.30;34.75;;;;;;;;;;4987899;28;20486;-69
2022/01/25 03:51:37;;;;;;;69.03;36.47;;;;;;;;;;4990985;28;20500;-70
2022/01/25 03:54:04;;;;;;;68.10;37.78;;;;;;;;;;4990625;28;20030;-70
2022/01/25 03:56:31;;;;;;;64.82;34.42;;;;;;;;;;5006411;28;20323;-69
2022/01/25 03:58:57;;;;;;;57.83;31.48;;;;;;;;;;4990266;28;20092;-71
2022/01/25 04:01:23;;;;;;;51.60;28.85;;;;;;;;;;4990944;28;20583;-68
2022/01/25 04:03:59;;;;;;;47.65;28.88;;;;;;;;;;5005027;28;20040;-69
2022/01/25 04:06:25;;;;;;;54.03;29.10;;;;;;;;;;4991137;28;20481;-71
2022/01/25 04:08:54;;;;;;;58.92;31.50;;;;;;;;;;4990316;28;20508;-71
2022/01/25 04:11:20;;;;;;;58.25;31.63;;;;;;;;;;4994173;28;20029;-69
2022/01/25 04:13:46;;;;;;;60.63;33.58;;;;;;;;;;4994420;28;20033;-72
2022/01/25 04:16:19;;;;;;;63.65;34.22;;;;;;;;;;4990206;28;20093;-69
2022/01/25 04:18:56;;;;;;;;;;;;;;;;;;4990045;28;20168;-70
2022/01/25 04:26:36;;;;;;;66.05;35.78;;;;;;;;;;4990290;28;20099;-69
2022/01/25 04:29:05;;;;;;;69.60;37.67;;;;;;;;;;4989751;28;20037;-70
2022/01/25 04:31:31;;;;;;;65.32;34.80;;;;;;;;;;4989549;28;20559;-69
2022/01/25 04:34:46;;;;;;;61.00;33.72;;;;;;;;;;4989935;28;20323;-70
2022/01/25 04:50:18;;;;;;;58.05;31.77;;;;;;;;;;4989386;28;20676;-70
2022/01/25 04:53:03;;;;;;;58.92;32.08;;;;;;;;;;4989759;28;20036;-69
2022/01/25 04:55:44;;;;;;;62.28;33.28;;;;;;;;;;4989207;28;20034;-69
2022/01/25 04:58:17;;;;;;;58.60;32.90;;;;;;;;;;4992495;28;20161;-70
2022/01/25 05:00:46;;;;;;;52.85;29.35;;;;;;;;;;4990170;28;20038;-69
2022/01/25 05:03:16;;;;;;;47.92;27.38;;;;;;;;;;4989217;28;20370;-70
2022/01/25 05:08:31;;;;;;;47.92;27.67;;;;;;;;;;4989209;28;20030;-70
2022/01/25 05:16:14;;;;;;;67.83;35.47;;;;;;;;;;4989723;28;20222;-69
2022/01/25 05:18:51;;;;;;;69.13;36.83;;;;;;;;;;5004071;28;20121;-70
2022/01/25 05:24:00;;;;;;;65.80;36.42;;;;;;;;;;4989293;28;20687;-70
2022/01/25 05:26:28;;;;;;;66.90;36.15;;;;;;;;;;4987363;28;20026;-69
2022/01/25 05:28:53;;;;;;;61.05;33.10;;;;;;;;;;4976179;28;20058;-70
2022/01/25 05:31:21;;;;;;;61.40;33.13;;;;;;;;;;4988602;28;20136;-70
2022/01/25 05:33:49;;;;;;;58.78;32.40;;;;;;;;;;4989061;28;20528;-69
2022/01/25 05:36:16;;;;;;;57.47;30.92;;;;;;;;;;4988038;28;20030;-72
2022/01/25 05:38:42;;;;;;;57.80;31.27;;;;;;;;;;4992567;28;20782;-69
2022/01/25 05:41:11;;;;;;;62.45;33.83;;;;;;;;;;4988853;28;20726;-69
2022/01/25 05:44:09;;;;;;;60.27;30.57;;;;;;;;;;4988307;28;20598;-70
2022/01/25 05:49:14;;;;;;;68.97;37.10;;;;;;;;;;4988253;28;20569;-70
2022/01/25 05:51:40;;;;;;;62.05;35.03;;;;;;;;;;4988479;28;20079;-70
2022/01/25 05:54:09;;;;;;;66.68;34.92;;;;;;;;;;4988718;28;20026;-70
2022/01/25 05:56:34;;;;;;;65.80;35.60;;;;;;;;;;4988830;28;20566;-69
2022/01/25 05:59:00;;;;;;;64.68;35.58;;;;;;;;;;4988452;28;20163;-69
2022/01/25 06:01:25;;;;;;;65.35;35.67;;;;;;;;;;5003102;28;20044;-70
2022/01/25 06:03:52;;;;;;;66.57;37.50;;;;;;;;;;4988163;28;20045;-69
2022/01/25 06:06:17;;;;;;;74.03;38.05;;;;;;;;;;4986303;28;20398;-70
2022/01/25 06:08:42;;;;;;;71.05;38.55;;;;;;;;;;4987346;28;20227;-71
2022/01/25 06:11:08;;;;;;;70.38;38.90;;;;;;;;;;4989209;28;20038;-71
2022/01/25 06:13:33;;;;;;;71.22;40.03;;;;;;;;;;4975734;28;20059;-69
2022/01/25 06:16:01;;;;;;;71.50;38.72;;;;;;;;;;4988219;28;20041;-69
2022/01/25 06:18:28;;;;;;;71.50;40.53;;;;;;;;;;4987769;28;20171;-69
2022/01/25 06:20:58;;;;;;;68.38;38.67;;;;;;;;;;4988590;28;20509;-69
2022/01/25 06:23:24;;;;;;;71.70;38.83;;;;;;;;;;4988136;28;20409;-70
2022/01/25 06:25:49;;;;;;;72.00;39.15;;;;;;;;;;4987831;28;20033;-70
2022/01/25 06:28:14;;;;;;;64.90;38.50;;;;;;;;;;4987844;28;20092;-70
2022/01/25 06:30:42;;;;;;;72.03;39.00;;;;;;;;;;4987535;28;20030;-69
2022/01/25 06:33:08;;;;;;;70.20;39.53;;;;;;;;;;4987221;28;20072;-69
2022/01/25 06:35:34;;;;;;;67.45;38.10;;;;;;;;;;4975663;28;20030;-71
2022/01/25 06:38:02;;;;;;;68.85;39.05;;;;;;;;;;4988057;28;20076;-70
2022/01/25 06:40:28;;;;;;;67.40;37.60;;;;;;;;;;4987370;28;20738;-70
2022/01/25 06:42:53;;;;;;;67.85;37.75;;;;;;;;;;4992223;28;20405;-70
2022/01/25 06:45:21;;;;;;;70.30;38.00;;;;;;;;;;4987633;28;20049;-70
2022/01/25 06:47:48;;;;;;;68.05;37.63;;;;;;;;;;4987964;28;20044;-69
2022/01/25 06:50:14;;;;;;;63.60;37.30;;;;;;;;;;5003222;28;20044;-69
2022/01/25 06:52:41;;;;;;;66.25;37.30;;;;;;;;;;4975559;28;21972;-69
2022/01/25 06:55:09;;;;;;;71.82;38.30;;;;;;;;;;4987740;28;20526;-69
2022/01/25 06:57:37;;;;;;;64.45;35.80;;;;;;;;;;4987692;28;20119;-70
2022/01/25 07:00:08;;;;;;;67.82;37.90;;;;;;;;;;4988076;28;20642;-70
2022/01/25 07:02:36;;;;;;;61.80;34.13;;;;;;;;;;4990533;28;20040;-69
2022/01/25 07:05:01;;;;;;;64.82;35.22;;;;;;;;;;4987446;28;20289;-70
2022/01/25 07:07:27;;;;;;;56.67;33.65;;;;;;;;;;4987026;28;20037;-69
2022/01/25 07:09:52;;;;;;;61.78;34.35;;;;;;;;;;4969266;28;20030;-69
2022/01/25 07:12:23;;;;;;;61.78;35.08;;;;;;;;;;4991197;28;20034;-69
2022/01/25 07:14:49;;;;;;;59.85;35.70;;;;;;;;;;4975354;28;20045;-70
2022/01/25 07:17:17;;;;;;;58.85;33.70;;;;;;;;;;4987441;28;20667;-69
2022/01/25 07:19:42;;;;;;;57.00;31.17;;;;;;;;;;4986960;28;20114;-69
2022/01/25 07:22:08;;;;;;;60.85;34.22;;;;;;;;;;4985714;28;20045;-70
2022/01/25 07:24:33;;;;;;;57.00;34.30;;;;;;;;;;4987283;28;22375;-70
2022/01/25 07:26:59;;;;;;;61.97;34.53;;;;;;;;;;4986876;28;20680;-70
2022/01/25 07:29:25;;;;;;;57.97;34.00;;;;;;;;;;4990694;28;20033;-69
2022/01/25 07:31:51;;;;;;;60.90;33.75;;;;;;;;;;4987710;28;20057;-69
2022/01/25 07:34:16;;;;;;;57.50;33.70;;;;;;;;;;4986154;28;20089;-69
2022/01/25 07:36:44;;;;;;;62.53;33.70;;;;;;;;;;4987186;28;20046;-70
2022/01/25 07:39:12;;;;;;;59.70;34.05;;;;;;;;;;4986975;28;20033;-68
2022/01/25 07:41:40;;;;;;;64.13;34.00;;;;;;;;;;4987224;28;20492;-70
2022/01/25 07:44:06;;;;;;;62.65;33.00;;;;;;;;;;4987492;28;20129;-69
2022/01/25 07:46:32;;;;;;;60.35;33.33;;;;;;;;;;4991547;28;20039;-69
2022/01/25 07:49:03;;;;;;;53.75;31.20;;;;;;;;;;4986885;28;20599;-69
2022/01/25 07:51:29;;;;;;;58.72;31.73;;;;;;;;;;4987466;28;20033;-70
2022/01/25 07:54:00;;;;;;;57.17;31.05;;;;;;;;;;4986810;28;20041;-69
2022/01/25 07:56:26;;;;;;;54.00;30.10;;;;;;;;;;4986579;28;20319;-69
2022/01/25 07:58:52;;;;;;;53.22;31.17;;;;;;;;;;4986709;28;20033;-70
2022/01/25 08:01:20;;;;;;;61.20;32.42;;;;;;;;;;4987329;28;20026;-70
2022/01/25 08:03:46;;;;;;;56.13;32.25;;;;;;;;;;4987031;28;20150;-70
2022/01/25 08:06:14;;;;;;;58.22;31.55;;;;;;;;;;4987530;28;20022;-69
2022/01/25 08:08:40;;;;;;;63.53;33.22;;;;;;;;;;4986627;28;20038;-70
2022/01/25 08:11:06;;;;;;;55.97;32.30;;;;;;;;;;4987217;28;20018;-70
2022/01/25 08:13:32;;;;;;;61.45;32.92;;;;;;;;;;4986857;28;20033;-70
2022/01/25 08:15:57;;;;;;;54.70;28.30;;;;;;;;;;4987024;28;20084;-69
2022/01/25 08:18:27;;;;;;;54.15;29.33;;;;;;;;;;4986794;28;20029;-70
2022/01/25 08:20:53;;;;;;;56.63;31.25;;;;;;;;;;4987082;28;20830;-70
2022/01/25 08:23:20;;;;;;;58.25;32.60;;;;;;;;;;4986367;28;20053;-69
2022/01/25 08:25:46;;;;;;;57.45;33.17;;;;;;;;;;4986486;28;20525;-69
2022/01/25 08:28:14;;;;;;;53.80;31.45;;;;;;;;;;4986001;28;20022;-69
2022/01/25 08:30:40;;;;;;;56.72;30.60;;;;;;;;;;4986674;28;20117;-69
2022/01/25 08:33:05;;;;;;;57.78;32.70;;;;;;;;;;4987317;28;20142;-69
2022/01/25 08:35:31;;;;;;;58.25;31.80;;;;;;;;;;4977659;28;20513;-69
2022/01/25 08:37:56;;;;;;;53.22;30.55;;;;;;;;;;4990222;28;22711;-69
2022/01/25 08:40:26;;;;;;;58.17;33.05;;;;;;;;;;4990099;28;20268;-70
2022/01/25 08:42:54;;;;;;;57.13;32.78;;;;;;;;;;4972380;28;20030;-70
2022/01/25 08:45:19;;;;;;;60.05;32.72;;;;;;;;;;4995076;28;21810;-69
2022/01/25 08:47:47;;;;;;;57.05;31.58;;;;;;;;;;4990131;28;20108;-69
2022/01/25 08:50:12;;;;;;;55.70;31.25;;;;;;;;;;4989821;28;20042;-70
2022/01/25 08:52:39;;;;;;;53.08;29.92;;;;;;;;;;4989911;28;20047;-69
2022/01/25 08:55:06;;;;;;;53.25;30.65;;;;;;;;;;4989256;28;20416;-69
2022/01/25 08:57:33;;;;;;;48.80;27.95;;;;;;;;;;4994283;28;20087;-70
2022/01/25 08:59:59;;;;;;;51.20;27.05;;;;;;;;;;4989838;28;20123;-70
2022/01/25 09:02:24;;;;;;;49.17;27.50;;;;;;;;;;4990017;28;20492;-70
2022/01/25 09:04:50;;;;;;;51.75;28.75;;;;;;;;;;4989275;28;20114;-70
2022/01/25 09:07:16;;;;;;;45.80;26.42;;;;;;;;;;4989556;28;20033;-69
2022/01/25 09:09:42;;;;;;;48.03;26.65;;;;;;;;;;4993335;28;20037;-69
2022/01/25 09:12:07;;;;;;;44.28;25.58;;;;;;;;;;4988965;28;20045;-69
2022/01/25 09:14:33;;;;;;;48.28;26.75;;;;;;;;;;4993737;28;20132;-69
2022/01/25 09:17:07;;;;;;;48.80;26.77;;;;;;;;;;4977560;28;20163;-69
2022/01/25 09:19:35;;;;;;;48.45;27.23;;;;;;;;;;4987742;28;20605;-69
2022/01/25 09:22:00;;;;;;;51.95;28.90;;;;;;;;;;4977836;28;20038;-69
2022/01/25 09:24:28;;;;;;;49.10;28.80;;;;;;;;;;4988565;28;20034;-70
2022/01/25 09:26:53;;;;;;;54.50;29.83;;;;;;;;;;4989979;28;20034;-69
2022/01/25 09:29:21;;;;;;;51.67;28.77;;;;;;;;;;4987761;28;20088;-69
2022/01/25 09:31:46;;;;;;;53.83;28.77;;;;;;;;;;4993504;28;20054;-70
2022/01/25 09:34:15;;;;;;;47.45;27.10;;;;;;;;;;4988669;28;20072;-70
2022/01/25 09:36:43;;;;;;;52.05;29.70;;;;;;;;;;4989450;28;20041;-70
2022/01/25 09:39:11;;;;;;;54.92;29.83;;;;;;;;;;5003442;28;20417;-71
2022/01/25 09:41:36;;;;;;;52.50;29.45;;;;;;;;;;4989400;28;20034;-69
2022/01/25 09:44:04;;;;;;;52.60;28.45;;;;;;;;;;4988657;28;20048;-70
2022/01/25 09:46:30;;;;;;;54.40;29.33;;;;;;;;;;4993826;28;20029;-70
2022/01/25 09:48:55;;;;;;;42.33;24.00;;;;;;;;;;4986851;28;20657;-68
2022/01/25 09:51:21;;;;;;;39.92;23.48;;;;;;;;;;4989568;28;20157;-70
2022/01/25 09:53:49;;;;;;;41.60;23.15;;;;;;;;;;4988996;28;20036;-69
2022/01/25 09:56:16;;;;;;;48.05;26.90;;;;;;;;;;4989373;28;20084;-70
2022/01/25 09:58:44;;;;;;;51.80;28.92;;;;;;;;;;4976750;28;20486;-69
2022/01/25 10:01:10;;;;;;;48.08;28.63;;;;;;;;;;4976909;28;20108;-69
2022/01/25 10:03:38;;;;;;;52.95;28.80;;;;;;;;;;4987814;28;20083;-69
2022/01/25 10:06:12;;;;;;;54.42;30.70;;;;;;;;;;4991919;28;20029;-69
2022/01/25 10:08:37;;;;;;;52.55;29.48;;;;;;;;;;4993321;28;20497;-69
2022/01/25 10:11:07;;;;;;;53.97;30.65;;;;;;;;;;4988389;28;20034;-69
2022/01/25 10:13:40;;;;;;;52.55;28.88;;;;;;;;;;4988945;28;20462;-69
2022/01/25 10:16:08;;;;;;;51.97;29.55;;;;;;;;;;4986068;28;20061;-69
2022/01/25 10:18:37;;;;;;;54.15;29.63;;;;;;;;;;4988968;28;20087;-70
2022/01/25 10:21:03;;;;;;;54.63;28.25;;;;;;;;;;4989118;28;20045;-69
2022/01/25 10:23:31;;;;;;;48.15;26.27;;;;;;;;;;5002813;28;20030;-70
2022/01/25 10:25:59;;;;;;;48.13;26.55;;;;;;;;;;4988567;28;20498;-70
2022/01/25 10:28:28;;;;;;;47.90;26.88;;;;;;;;;;4988235;28;20189;-70
2022/01/25 10:31:00;;;;;;;53.50;29.20;;;;;;;;;;4989037;28;20037;-70
2022/01/25 10:33:27;;;;;;;;;;;;;;;;;;4988064;28;20076;-70
2022/01/25 10:35:53;;;;;;;46.50;24.67;;;;;;;;;;4989015;28;20020;-72
2022/01/25 10:38:31;;;;;;;48.50;26.35;;;;;;;;;;4976098;28;20046;-67
2022/01/25 10:41:01;;;;;;;50.35;25.85;;;;;;;;;;4989098;28;20033;-71
2022/01/25 10:43:27;;;;;;;55.03;28.83;;;;;;;;;;4988234;28;20030;-68
2022/01/25 10:46:06;;;;;;;60.17;32.63;;;;;;;;;;4987673;28;20055;-69
2022/01/25 10:48:31;;;;;;;60.75;33.28;;;;;;;;;;4987329;28;20042;-69
2022/01/25 10:51:05;;;;;;;60.10;32.33;;;;;;;;;;4988057;28;20117;-69
2022/01/25 10:53:33;;;;;;;52.88;29.33;;;;;;;;;;4988528;28;20512;-69
2022/01/25 10:56:01;;;;;;;63.88;35.95;;;;;;;;;;4987614;28;20046;-69
2022/01/25 10:58:46;;;;;;;55.67;30.52;;;;;;;;;;5000615;28;20040;-69
2022/01/25 11:01:14;;;;;;;54.63;28.00;;;;;;;;;;4998443;28;22054;-70
2022/01/25 11:03:41;;;;;;;53.95;29.27;;;;;;;;;;4999853;28;20137;-69
2022/01/25 11:06:15;;;;;;;60.55;32.63;;;;;;;;;;4999084;28;20441;-69
2022/01/25 11:08:44;;;;;;;59.70;33.42;;;;;;;;;;4999138;28;20108;-70
2022/01/25 11:11:25;;;;;;;62.42;33.33;;;;;;;;;;4983477;28;20031;-69
2022/01/25 11:13:53;;;;;;;66.70;36.58;;;;;;;;;;5001118;28;20037;-70
2022/01/25 11:16:18;;;;;;;83.40;41.50;;;;;;;;;;5000673;28;20455;-69
2022/01/25 11:18:44;;;;;;;79.10;39.28;;;;;;;;;;4984909;28;20037;-69
2022/01/25 11:21:14;;;;;;;113.72;52.90;;;;;;;;;;4984442;28;20129;-68
2022/01/25 11:23:43;;;;;;;89.55;42.00;;;;;;;;;;4998880;28;20037;-69
2022/01/25 11:26:10;;;;;;;155.43;57.15;;;;;;;;;;5000563;28;20307;-71
2022/01/25 11:28:37;;;;;;;60.72;34.58;;;;;;;;;;4997747;28;20056;-69
2022/01/25 11:31:05;;;;;;;57.25;30.40;;;;;;;;;;4988638;28;20037;-69
2022/01/25 11:33:31;;;;;;;51.35;26.48;;;;;;;;;;4986621;28;20038;-69
2022/01/25 11:35:57;;;;;;;53.65;29.90;;;;;;;;;;4987694;28;21100;-69
2022/01/25 11:38:42;;;;;;;55.53;32.65;;;;;;;;;;4990812;28;20034;-69
2022/01/25 11:41:11;;;;;;;54.00;28.58;;;;;;;;;;4987673;28;20090;-69
2022/01/25 11:43:37;;;;;;;53.17;29.45;;;;;;;;;;4986992;28;20037;-68
2022/01/25 11:46:06;;;;;;;58.97;33.83;;;;;;;;;;4987378;28;20100;-70
2022/01/25 11:48:41;;;;;;;52.17;28.83;;;;;;;;;;4986708;28;20045;-70
2022/01/25 11:51:12;;;;;;;54.08;28.45;;;;;;;;;;4988122;28;20357;-69
2022/01/25 11:53:40;;;;;;;48.97;28.02;;;;;;;;;;4986327;28;20037;-69
2022/01/25 11:56:07;;;;;;;52.10;28.02;;;;;;;;;;4974902;28;20541;-69
2022/01/25 11:58:33;;;;;;;50.95;28.45;;;;;;;;;;4984581;28;20149;-70
2022/01/25 12:01:07;;;;;;;53.28;28.73;;;;;;;;;;4987775;28;20049;-69
2022/01/25 12:03:44;;;;;;;54.42;28.50;;;;;;;;;;4986161;28;20111;-69
2022/01/25 12:06:17;;;;;;;54.63;30.13;;;;;;;;;;4991555;28;20030;-69
2022/01/25 12:11:23;;;;;;;61.53;31.80;;;;;;;;;;4991634;28;20034;-70
2022/01/25 12:14:08;;;;;;;64.72;34.63;;;;;;;;;;4991459;28;20034;-71
2022/01/25 12:16:43;;;;;;;53.72;31.88;;;;;;;;;;4991775;28;20419;-69
2022/01/25 12:19:09;;;;;;;52.75;29.35;;;;;;;;;;4991236;28;20150;-69
2022/01/25 12:21:51;;;;;;;54.25;29.42;;;;;;;;;;4990516;28;20448;-69
2022/01/25 12:24:17;;;;;;;52.30;29.90;;;;;;;;;;4978470;28;20038;-69
2022/01/25 12:27:03;;;;;;;51.45;28.10;;;;;;;;;;4989401;28;20106;-70
2022/01/25 12:29:33;;;;;;;55.10;28.90;;;;;;;;;;4990435;28;20580;-69
2022/01/25 12:32:16;;;;;;;51.85;28.67;;;;;;;;;;4990703;28;20025;-71
2022/01/25 12:34:57;;;;;;;54.67;28.42;;;;;;;;;;4990892;28;20065;-69
2022/01/25 12:37:41;;;;;;;50.03;26.50;;;;;;;;;;4990571;28;20026;-69
2022/01/25 12:40:25;;;;;;;54.78;28.52;;;;;;;;;;4988914;28;20440;-69
2022/01/25 12:42:54;;;;;;;53.72;28.17;;;;;;;;;;4989747;28;20036;-70
2022/01/25 12:45:21;;;;;;;50.85;27.23;;;;;;;;;;4990708;28;20030;-69
2022/01/25 12:47:50;;;;;;;53.15;25.67;;;;;;;;;;4989503;28;20373;-69
2022/01/25 12:50:18;;;;;;;50.95;26.92;;;;;;;;;;5004427;28;20057;-70
2022/01/25 12:52:46;;;;;;;54.50;27.40;;;;;;;;;;4993906;28;20022;-69
2022/01/25 12:55:15;;;;;;;52.92;28.40;;;;;;;;;;5004879;28;20485;-69
2022/01/25 12:57:55;;;;;;;54.67;27.85;;;;;;;;;;4989334;28;20523;-68
2022/01/25 13:00:26;;;;;;;60.25;32.13;;;;;;;;;;4990912;28;20561;-69
2022/01/25 13:02:52;;;;;;;59.25;32.30;;;;;;;;;;4989733;28;20037;-69
2022/01/25 13:05:20;;;;;;;58.15;29.42;;;;;;;;;;4989190;28;20034;-69
2022/01/25 13:07:46;;;;;;;50.15;26.60;;;;;;;;;;4990206;28;20057;-69
2022/01/25 13:10:22;;;;;;;57.35;27.38;;;;;;;;;;4989534;28;20181;-69
2022/01/25 13:12:56;;;;;;;50.72;27.05;;;;;;;;;;4989908;28;20052;-69
2022/01/25 13:15:52;;;;;;;55.85;27.92;;;;;;;;;;4990793;28;20068;-69
2022/01/25 13:18:18;;;;;;;60.60;30.88;;;;;;;;;;4989627;28;20579;-69
2022/01/25 13:20:47;;;;;;;58.38;31.38;;;;;;;;;;4989401;28;20033;-69
2022/01/25 13:23:12;;;;;;;74.53;33.42;;;;;;;;;;4989628;28;20144;-69
2022/01/25 13:28:22;;;;;;;69.75;36.20;;;;;;;;;;4989137;28;20025;-69
2022/01/25 13:30:49;;;;;;;71.38;35.72;;;;;;;;;;4989847;28;20129;-69
2022/01/25 13:33:17;;;;;;;65.47;32.88;;;;;;;;;;4989618;28;20047;-69
2022/01/25 13:35:48;;;;;;;67.43;36.10;;;;;;;;;;4988819;28;20494;-69
2022/01/25 13:38:18;;;;;;;73.18;38.28;;;;;;;;;;4989504;28;20041;-69
2022/01/25 13:41:00;;;;;;;69.22;37.63;;;;;;;;;;4989186;28;20032;-70
2022/01/25 13:45:57;;;;;;;69.07;37.50;;;;;;;;;;4989482;28;20106;-69
2022/01/25 13:48:26;;;;;;;72.32;38.05;;;;;;;;;;4988731;28;20061;-70
2022/01/25 13:50:56;;;;;;;73.25;38.90;;;;;;;;;;4989402;28;21946;-69
2022/01/25 13:53:24;;;;;;;74.15;39.80;;;;;;;;;;4988436;28;20257;-69
2022/01/25 13:55:54;;;;;;;73.93;38.67;;;;;;;;;;4989410;28;20171;-68
2022/01/25 13:58:19;;;;;;;76.72;38.83;;;;;;;;;;4988247;28;20026;-69
2022/01/25 14:00:44;;;;;;;73.30;37.22;;;;;;;;;;4976798;28;20025;-70
2022/01/25 14:03:10;;;;;;;72.25;37.25;;;;;;;;;;4988298;28;20026;-70
2022/01/25 14:05:36;;;;;;;72.68;36.28;;;;;;;;;;4988358;28;20164;-70
2022/01/25 14:08:02;;;;;;;69.65;35.95;;;;;;;;;;4988659;28;20695;-69
2022/01/25 14:10:29;;;;;;;73.00;37.53;;;;;;;;;;4988391;28;20036;-69
2022/01/25 14:24:04;;;;;;;71.57;35.67;;;;;;;;;;4987953;28;20037;-71
2022/01/25 14:26:30;;;;;;;77.22;36.75;;;;;;;;;;4988788;28;20057;-69
2022/01/25 14:29:07;;;;;;;72.65;36.10;;;;;;;;;;4987534;28;20026;-70
2022/01/25 14:31:38;;;;;;;66.30;33.17;;;;;;;;;;4988871;28;20030;-69
2022/01/25 14:34:05;;;;;;;76.57;36.95;;;;;;;;;;4988059;28;20050;-69
2022/01/25 14:36:31;;;;;;;69.00;34.53;;;;;;;;;;4987995;28;20545;-69
2022/01/25 14:38:58;;;;;;;71.00;35.22;;;;;;;;;;4988038;28;20026;-68
2022/01/25 14:41:30;;;;;;;69.45;35.72;;;;;;;;;;4987708;28;20491;-70
2022/01/25 14:44:04;;;;;;;70.25;35.20;;;;;;;;;;4989064;28;20064;-69
2022/01/25 14:46:32;;;;;;;73.60;37.05;;;;;;;;;;4988908;28;20037;-69
2022/01/25 14:49:41;;;;;;;69.40;37.08;;;;;;;;;;4987354;28;20034;-70
2022/01/25 14:52:06;;;;;;;66.10;35.10;;;;;;;;;;4952883;28;20430;-69
2022/01/25 14:54:42;;;;;;;71.60;35.17;;;;;;;;;;4983065;28;20060;-70
2022/01/25 14:57:12;;;;;;;70.47;34.80;;;;;;;;;;4988277;28;20041;-70
2022/01/25 14:59:41;;;;;;;67.05;34.38;;;;;;;;;;4992453;28;20462;-70
2022/01/25 15:02:07;;;;;;;73.05;35.88;;;;;;;;;;4987415;28;20022;-69
2022/01/25 15:04:39;;;;;;;82.70;39.15;;;;;;;;;;4975880;28;20107;-69
2022/01/25 15:07:05;;;;;;;86.28;38.20;;;;;;;;;;4988003;28;20029;-70
2022/01/25 15:09:33;;;;;;;74.55;37.30;;;;;;;;;;4988423;28;20033;-70
2022/01/25 15:12:01;;;;;;;75.75;37.75;;;;;;;;;;4987358;28;20030;-70
2022/01/25 15:14:38;;;;;;;63.80;27.90;;;;;;;;;;4991513;28;20450;-69
2022/01/25 15:17:03;;;;;;;74.50;37.03;;;;;;;;;;4987906;28;20109;-69
2022/01/25 15:19:31;;;;;;;74.00;36.10;;;;;;;;;;4987488;28;20536;-69
2022/01/25 15:21:57;;;;;;;74.18;35.47;;;;;;;;;;4987319;28;20512;-70
2022/01/25 15:24:27;;;;;;;77.78;34.38;;;;;;;;;;4986842;28;20030;-70
2022/01/25 15:26:57;;;;;;;77.15;36.38;;;;;;;;;;4966768;28;20315;-70
2022/01/25 15:29:25;;;;;;;80.10;35.30;;;;;;;;;;4975636;28;20038;-70
2022/01/25 15:31:52;;;;;;;75.50;35.83;;;;;;;;;;4988086;28;20129;-69
2022/01/25 15:34:18;;;;;;;70.70;35.95;;;;;;;;;;4986396;28;20054;-69
2022/01/25 15:36:44;;;;;;;71.68;33.70;;;;;;;;;;4988424;28;20029;-69
2022/01/25 15:39:10;;;;;;;69.68;33.10;;;;;;;;;;4986579;28;20069;-69
2022/01/25 15:41:38;;;;;;;69.80;34.38;;;;;;;;;;4974634;28;20703;-69
2022/01/25 15:44:06;;;;;;;79.72;35.95;;;;;;;;;;4987526;28;20022;-69
2022/01/25 15:46:34;;;;;;;69.65;33.45;;;;;;;;;;4974736;28;20034;-70
2022/01/25 15:49:02;;;;;;;76.03;35.58;;;;;;;;;;4987049;28;20026;-70
2022/01/25 15:51:27;;;;;;;67.43;33.05;;;;;;;;;;4986331;28;20722;-70
2022/01/25 15:53:54;;;;;;;69.38;33.60;;;;;;;;;;4991333;28;20021;-70
2022/01/25 15:56:20;;;;;;;70.13;32.03;;;;;;;;;;4987322;28;22529;-69
2022/01/25 15:58:45;;;;;;;71.68;34.33;;;;;;;;;;4963692;28;20032;-68
2022/01/25 16:01:11;;;;;;;65.95;32.63;;;;;;;;;;4986955;28;20029;-69
2022/01/25 16:03:38;;;;;;;68.35;32.13;;;;;;;;;;4974501;28;20111;-70
2022/01/25 16:06:04;;;;;;;61.05;30.15;;;;;;;;;;4986346;28;20669;-70
2022/01/25 16:08:30;;;;;;;61.63;29.70;;;;;;;;;;4986834;28;20042;-70
2022/01/25 16:10:58;;;;;;;66.68;32.10;;;;;;;;;;4987584;28;20072;-71
2022/01/25 16:13:26;;;;;;;69.35;33.17;;;;;;;;;;4986971;28;20486;-70
2022/01/25 16:15:52;;;;;;;70.32;32.67;;;;;;;;;;4990835;28;20501;-70
2022/01/25 16:18:18;;;;;;;72.43;34.70;;;;;;;;;;4986073;28;20044;-69
2022/01/25 16:20:44;;;;;;;72.57;33.55;;;;;;;;;;4987235;28;20065;-69
2022/01/25 16:23:10;;;;;;;66.32;32.00;;;;;;;;;;4986715;28;20030;-69
2022/01/25 16:25:36;;;;;;;64.88;32.33;;;;;;;;;;5001628;28;20045;-69